Time;durP1;ratioP1;P1;durP2;ratioP2;P2;SDS_P1;SDS_P2;PMS_P1;PMS_P2;Temp;Humidity;BMP_temperature;BMP_pressure;BME280_temperature;BME280_humidity;BME280_pressure;Samples;Min_cycle;Max_cycle;Signal;HPM_P1;HPM_P2
2023/03/08 00:00:13;;;;;;;235.43;40.67;;;;;;;6.91;nan;99098.38;4983814;28;20286;-70
2023/03/08 00:02:39;;;;;;;225.68;38.38;;;;;;;6.96;nan;99104.44;4991377;28;20052;-70
2023/03/08 00:05:05;;;;;;;227.95;38.92;;;;;;;6.99;nan;99100.06;5006947;28;20030;-70
2023/03/08 00:07:32;;;;;;;222.53;37.30;;;;;;;7.04;nan;99106.13;4999723;28;20034;-70
2023/03/08 00:09:57;;;;;;;215.05;37.47;;;;;;;7.09;nan;99111.31;4998174;28;20086;-70
2023/03/08 00:12:22;;;;;;;197.47;37.67;;;;;;;7.16;nan;99106.88;4999628;28;20533;-70
2023/03/08 00:14:49;;;;;;;212.10;38.05;;;;;;;7.21;nan;99093.75;5003031;28;20113;-70
2023/03/08 00:17:15;;;;;;;203.43;37.58;;;;;;;7.24;nan;99085.88;5007282;28;20037;-70
2023/03/08 00:19:41;;;;;;;232.00;38.33;;;;;;;7.25;nan;99072.78;4999487;28;20018;-70
2023/03/08 00:22:06;;;;;;;190.98;36.90;;;;;;;7.28;nan;99075.38;4999382;28;20061;-70
2023/03/08 00:24:31;;;;;;;206.30;36.13;;;;;;;7.30;nan;99078.84;4999287;28;20034;-70
2023/03/08 00:26:57;;;;;;;183.53;35.63;;;;;;;7.34;nan;99087.50;4998066;28;20022;-70
2023/03/08 00:29:23;;;;;;;171.93;33.67;;;;;;;7.38;nan;99084.00;4999156;28;20027;-70
2023/03/08 00:31:48;;;;;;;173.25;31.52;;;;;;;7.39;nan;99082.22;5002435;28;20449;-70
2023/03/08 00:34:14;;;;;;;158.73;30.80;;;;;;;7.45;nan;99071.69;5000225;28;20061;-70
2023/03/08 00:36:40;;;;;;;158.68;29.38;;;;;;;7.49;nan;99069.91;4999092;28;20026;-70
2023/03/08 00:39:05;;;;;;;166.48;28.83;;;;;;;7.53;nan;99074.22;4999043;28;20482;-70
2023/03/08 00:41:30;;;;;;;144.47;27.03;;;;;;;7.56;nan;99063.72;5001437;28;20092;-70
2023/03/08 00:43:56;;;;;;;142.30;25.63;;;;;;;7.59;nan;99058.44;4994949;28;20038;-70
2023/03/08 00:46:21;;;;;;;125.00;25.40;;;;;;;7.60;nan;99060.19;4979560;28;20027;-70
2023/03/08 00:48:47;;;;;;;114.83;22.77;;;;;;;7.61;nan;99060.16;4979252;28;20023;-71
2023/03/08 00:51:14;;;;;;;135.57;24.13;;;;;;;7.63;nan;99062.78;4979685;28;20522;-70
2023/03/08 00:53:40;;;;;;;115.00;24.05;;;;;;;7.68;nan;99068.81;4986065;28;20026;-70
2023/03/08 00:56:06;;;;;;;100.83;21.53;;;;;;;7.69;nan;99056.56;5007692;28;20077;-70
2023/03/08 00:58:31;;;;;;;120.73;22.83;;;;;;;7.71;nan;99052.19;4995573;28;20022;-70
2023/03/08 01:00:58;;;;;;;119.80;22.65;;;;;;;7.75;nan;99046.03;4989416;28;20046;-70
2023/03/08 01:03:24;;;;;;;128.13;23.27;;;;;;;7.76;nan;99048.63;4994586;28;20027;-70
2023/03/08 01:05:52;;;;;;;103.93;21.23;;;;;;;7.79;nan;99045.13;5007275;28;20486;-70
2023/03/08 01:08:19;;;;;;;106.10;21.25;;;;;;;7.80;nan;99048.59;4998293;28;20113;-71
2023/03/08 01:10:58;;;;;;;112.82;21.42;;;;;;;7.78;nan;99050.38;4997256;28;20033;-70
2023/03/08 01:13:26;;;;;;;92.25;19.58;;;;;;;7.76;nan;99046.00;4998526;28;20026;-70
2023/03/08 01:15:51;;;;;;;95.90;20.50;;;;;;;7.76;nan;99040.78;5010050;28;20026;-70
2023/03/08 01:18:17;;;;;;;95.37;19.83;;;;;;;7.76;nan;99030.28;4998260;28;20050;-70
2023/03/08 01:20:42;;;;;;;91.47;18.27;;;;;;;7.76;nan;99035.53;4997100;28;20029;-70
2023/03/08 01:23:09;;;;;;;95.30;19.67;;;;;;;7.78;nan;99021.53;4998321;28;20026;-70
2023/03/08 01:25:34;;;;;;;87.90;19.60;;;;;;;7.76;nan;99019.81;4996290;28;20030;-69
2023/03/08 01:28:00;;;;;;;79.45;18.67;;;;;;;7.71;nan;99016.38;4998084;28;20077;-70
2023/03/08 01:30:26;;;;;;;74.73;17.10;;;;;;;7.69;nan;99020.78;4997788;28;20026;-70
2023/03/08 01:32:51;;;;;;;84.80;17.23;;;;;;;7.69;nan;99019.91;5002949;28;20027;-70
2023/03/08 01:35:17;;;;;;;76.78;17.73;;;;;;;7.71;nan;99018.13;4997532;28;20112;-71
2023/03/08 01:37:42;;;;;;;90.13;18.07;;;;;;;7.73;nan;98985.78;4997871;28;20038;-70
2023/03/08 01:40:13;;;;;;;83.47;19.70;;;;;;;7.71;nan;98984.06;4985254;28;20031;-70
2023/03/08 01:42:39;;;;;;;85.70;18.48;;;;;;;7.71;nan;98984.06;5000176;28;20026;-71
2023/03/08 01:45:25;;;;;;;75.80;18.15;;;;;;;7.69;nan;98977.97;4997980;28;20026;-70
2023/03/08 01:47:51;;;;;;;95.03;18.10;;;;;;;7.70;nan;98977.09;4997656;28;20031;-70
2023/03/08 01:50:16;;;;;;;88.63;18.40;;;;;;;7.72;nan;98981.44;4997696;28;20041;-70
2023/03/08 01:52:47;;;;;;;87.97;18.40;;;;;;;7.74;nan;98984.88;4997780;28;20096;-70
2023/03/08 01:55:14;;;;;;;86.00;17.73;;;;;;;7.75;nan;98978.75;5010449;28;20030;-70
2023/03/08 01:57:47;;;;;;;81.35;17.75;;;;;;;7.76;nan;98967.38;4997919;28;20030;-70
2023/03/08 02:00:17;;;;;;;89.28;18.83;;;;;;;7.82;nan;98970.81;4980774;28;20109;-70
2023/03/08 02:02:52;;;;;;;81.78;18.13;;;;;;;7.82;nan;98976.94;4997066;28;20040;-70
2023/03/08 02:05:18;;;;;;;89.72;19.13;;;;;;;7.83;nan;98975.16;5002515;28;20098;-70
2023/03/08 02:07:44;;;;;;;90.27;18.33;;;;;;;7.86;nan;98962.88;4997755;28;20030;-70
2023/03/08 02:10:10;;;;;;;94.20;19.10;;;;;;;7.89;nan;98977.72;4997474;28;20093;-70
2023/03/08 02:12:37;;;;;;;78.77;18.73;;;;;;;7.89;nan;98956.75;4997549;28;20092;-70
2023/03/08 02:15:05;;;;;;;82.85;19.17;;;;;;;7.89;nan;98962.84;5003654;28;20616;-70
2023/03/08 02:17:34;;;;;;;84.22;18.83;;;;;;;7.91;nan;98965.47;5003822;28;20030;-70
2023/03/08 02:20:13;;;;;;;85.30;19.27;;;;;;;7.89;nan;98951.50;4984860;28;20031;-70
2023/03/08 02:22:43;;;;;;;83.47;18.45;;;;;;;7.93;nan;98958.44;4997321;28;20038;-70
2023/03/08 02:25:20;;;;;;;81.30;17.87;;;;;;;7.95;nan;98955.78;4997580;28;20403;-70
2023/03/08 02:27:47;;;;;;;87.45;18.48;;;;;;;7.98;nan;98977.56;4997139;28;20108;-70
2023/03/08 02:30:14;;;;;;;79.93;18.15;;;;;;;7.98;nan;98953.13;4990533;28;20114;-70
2023/03/08 02:32:40;;;;;;;91.28;19.55;;;;;;;7.99;nan;98945.22;5001046;28;20045;-71
2023/03/08 02:35:05;;;;;;;98.33;19.03;;;;;;;7.99;nan;98936.50;4997218;28;20034;-70
2023/03/08 02:37:32;;;;;;;82.37;19.13;;;;;;;7.99;nan;98932.13;4979519;28;20414;-70
2023/03/08 02:39:58;;;;;;;84.43;19.25;;;;;;;7.98;nan;98925.16;4977755;28;20027;-70
2023/03/08 02:42:23;;;;;;;92.53;18.53;;;;;;;7.99;nan;98908.53;4996831;28;20027;-70
2023/03/08 02:44:49;;;;;;;80.40;18.67;;;;;;;7.98;nan;98898.94;4997451;28;20038;-70
2023/03/08 02:47:14;;;;;;;77.27;17.77;;;;;;;7.95;nan;98898.97;4996881;28;20034;-70
2023/03/08 02:49:40;;;;;;;79.03;18.17;;;;;;;7.95;nan;98893.75;4997244;28;20096;-71
2023/03/08 02:52:05;;;;;;;92.93;18.08;;;;;;;7.96;nan;98900.72;4997098;28;20084;-70
2023/03/08 02:54:30;;;;;;;94.67;20.23;;;;;;;7.95;nan;98909.47;5007332;28;20069;-70
2023/03/08 02:56:56;;;;;;;76.90;20.20;;;;;;;7.94;nan;98915.59;4998910;28;20032;-70
2023/03/08 02:59:21;;;;;;;84.03;20.70;;;;;;;7.92;nan;98911.25;4985998;28;20031;-70
2023/03/08 03:01:46;;;;;;;80.30;21.50;;;;;;;7.89;nan;98899.09;4998151;28;20562;-70
2023/03/08 03:04:12;;;;;;;72.82;20.40;;;;;;;7.82;nan;98903.56;4997236;28;20058;-70
2023/03/08 03:06:37;;;;;;;71.00;20.83;;;;;;;7.78;nan;98903.59;4999527;28;20053;-70
2023/03/08 03:09:07;;;;;;;54.77;18.13;;;;;;;7.71;nan;98911.56;4997074;28;20026;-70
2023/03/08 03:11:32;;;;;;;48.72;17.83;;;;;;;7.64;nan;98914.28;4995698;28;20089;-70
2023/03/08 03:13:58;;;;;;;55.90;19.40;;;;;;;7.59;nan;98907.38;4997077;28;20030;-71
2023/03/08 03:16:25;;;;;;;55.83;19.00;;;;;;;7.53;nan;98902.22;4996876;28;20089;-70
2023/03/08 03:18:52;;;;;;;56.75;19.65;;;;;;;7.50;nan;98897.03;4995465;28;20034;-70
2023/03/08 03:21:18;;;;;;;66.03;21.53;;;;;;;7.50;nan;98880.44;4996928;28;20026;-70
2023/03/08 03:23:43;;;;;;;64.90;20.70;;;;;;;7.47;nan;98887.44;4996993;28;20031;-70
2023/03/08 03:26:13;;;;;;;63.40;20.10;;;;;;;7.43;nan;98896.22;4996694;28;20034;-70
2023/03/08 03:28:39;;;;;;;58.15;20.20;;;;;;;7.40;nan;98896.28;4996958;28;20459;-70
2023/03/08 03:31:16;;;;;;;71.40;21.23;;;;;;;7.38;nan;98891.94;4996409;28;20081;-70
2023/03/08 03:33:42;;;;;;;58.20;19.67;;;;;;;7.39;nan;98889.31;4992580;28;20031;-70
2023/03/08 03:36:11;;;;;;;65.53;22.17;;;;;;;7.37;nan;98891.09;4995537;28;20096;-70
2023/03/08 03:38:38;;;;;;;68.63;22.90;;;;;;;7.37;nan;98895.44;4996774;28;20057;-70
2023/03/08 03:41:09;;;;;;;58.25;19.67;;;;;;;7.34;nan;98896.34;4998991;28;20037;-70
2023/03/08 03:43:35;;;;;;;54.83;18.67;;;;;;;7.33;nan;98898.09;4996735;28;20493;-70
2023/03/08 03:46:03;;;;;;;56.53;18.57;;;;;;;7.34;nan;98896.34;4996658;28;20034;-70
2023/03/08 03:48:29;;;;;;;54.95;18.90;;;;;;;7.36;nan;98889.34;4996419;28;20077;-70
2023/03/08 03:50:56;;;;;;;65.30;19.15;;;;;;;7.37;nan;98891.09;5000382;28;20034;-70
2023/03/08 03:53:22;;;;;;;59.90;18.90;;;;;;;7.37;nan;98880.63;5000798;28;20470;-70
2023/03/08 03:55:48;;;;;;;45.95;16.27;;;;;;;7.37;nan;98875.38;5011592;28;20041;-70
2023/03/08 03:58:14;;;;;;;48.83;16.07;;;;;;;7.36;nan;98857.06;4998991;28;20434;-70
2023/03/08 04:00:39;;;;;;;40.20;15.48;;;;;;;7.34;nan;98854.44;4986119;28;20054;-70
2023/03/08 04:03:05;;;;;;;53.53;15.83;;;;;;;7.30;nan;98840.53;5001165;28;20030;-71
2023/03/08 04:05:30;;;;;;;49.97;15.60;;;;;;;7.26;nan;98845.84;5006841;28;20550;-70
2023/03/08 04:07:55;;;;;;;50.13;16.00;;;;;;;7.21;nan;98852.88;4999752;28;20030;-70
2023/03/08 04:10:21;;;;;;;63.97;16.80;;;;;;;7.16;nan;98839.84;4998541;28;20026;-70
2023/03/08 04:12:50;;;;;;;56.22;16.52;;;;;;;7.12;nan;98869.56;4999842;28;20376;-70
2023/03/08 04:15:16;;;;;;;60.63;17.40;;;;;;;7.12;nan;98852.13;5007707;28;20405;-70
2023/03/08 04:17:42;;;;;;;61.47;17.30;;;;;;;7.14;nan;98842.50;5004368;28;20030;-70
2023/03/08 04:20:08;;;;;;;53.43;16.23;;;;;;;7.15;nan;98841.63;4998270;28;20153;-70
2023/03/08 04:22:33;;;;;;;58.75;16.80;;;;;;;7.16;nan;98866.91;4999559;28;20054;-70
2023/03/08 04:24:59;;;;;;;58.77;17.13;;;;;;;7.17;nan;98867.75;4998086;28;20120;-70
2023/03/08 04:27:24;;;;;;;60.53;17.55;;;;;;;7.17;nan;98873.88;4997578;28;20034;-70
2023/03/08 04:29:49;;;;;;;53.47;16.93;;;;;;;7.19;nan;98868.59;4980825;28;20037;-70
2023/03/08 04:32:15;;;;;;;52.63;16.43;;;;;;;7.19;nan;98868.59;4995782;28;20470;-70
2023/03/08 04:34:41;;;;;;;53.20;16.33;;;;;;;7.23;nan;98883.38;4989951;28;20035;-70
2023/03/08 04:37:09;;;;;;;51.63;15.45;;;;;;;7.26;nan;98867.66;4999409;28;20041;-70
2023/03/08 04:39:34;;;;;;;42.97;13.55;;;;;;;7.27;nan;98866.78;4999304;28;20034;-71
2023/03/08 04:42:00;;;;;;;44.30;13.07;;;;;;;7.29;nan;98866.72;5001224;28;20495;-70
2023/03/08 04:44:25;;;;;;;41.83;13.03;;;;;;;7.31;nan;98880.66;4999425;28;20109;-70
2023/03/08 04:46:51;;;;;;;41.60;13.00;;;;;;;7.29;nan;98882.44;4999046;28;20038;-71
2023/03/08 04:49:17;;;;;;;45.73;13.23;;;;;;;7.30;nan;98889.41;4999064;28;20030;-71
2023/03/08 04:51:42;;;;;;;41.67;13.07;;;;;;;7.31;nan;98886.78;4999075;28;20056;-70
2023/03/08 04:54:07;;;;;;;43.17;12.57;;;;;;;7.31;nan;98896.38;5006043;28;20052;-70
2023/03/08 04:56:33;;;;;;;47.00;14.00;;;;;;;7.32;nan;98913.81;5004196;28;20030;-71
2023/03/08 04:58:58;;;;;;;50.30;13.57;;;;;;;7.33;nan;98910.31;4992222;28;20034;-71
2023/03/08 05:01:23;;;;;;;49.47;15.33;;;;;;;7.35;nan;98919.03;4995954;28;20054;-70
2023/03/08 05:03:51;;;;;;;48.93;14.93;;;;;;;7.37;nan;98925.13;4996226;28;20398;-71
2023/03/08 05:06:17;;;;;;;45.67;14.13;;;;;;;7.39;nan;98925.97;5004051;28;20061;-70
2023/03/08 05:08:44;;;;;;;52.95;13.98;;;;;;;7.42;nan;98914.56;4999095;28;20053;-70
2023/03/08 05:11:16;;;;;;;40.67;12.93;;;;;;;7.42;nan;98925.94;4998891;28;20030;-70
2023/03/08 05:13:41;;;;;;;51.13;14.50;;;;;;;7.42;nan;98923.31;4998940;28;20061;-71
2023/03/08 05:16:07;;;;;;;51.20;13.20;;;;;;;7.39;nan;98920.75;5011502;28;20040;-71
2023/03/08 05:18:33;;;;;;;55.17;16.08;;;;;;;7.37;nan;98917.28;4998475;28;20026;-71
2023/03/08 05:21:06;;;;;;;39.67;12.43;;;;;;;7.34;nan;98898.97;4997307;28;20049;-71
2023/03/08 05:23:31;;;;;;;42.28;12.60;;;;;;;7.32;nan;98891.13;4998436;28;20038;-71
2023/03/08 05:25:59;;;;;;;43.83;13.27;;;;;;;7.30;nan;98881.56;4982344;28;20494;-70
2023/03/08 05:28:26;;;;;;;45.03;12.98;;;;;;;7.30;nan;98894.66;4979062;28;20039;-71
2023/03/08 05:31:12;;;;;;;41.65;11.93;;;;;;;7.26;nan;98879.88;4989252;28;20434;-71
2023/03/08 05:33:39;;;;;;;38.00;11.32;;;;;;;7.27;nan;98885.09;5003335;28;20033;-70
2023/03/08 05:36:05;;;;;;;43.30;13.20;;;;;;;7.27;nan;98894.69;4998273;28;20032;-70
2023/03/08 05:38:31;;;;;;;39.17;12.57;;;;;;;7.28;nan;98888.56;4998327;28;20036;-70
2023/03/08 05:41:01;;;;;;;40.67;11.77;;;;;;;7.30;nan;98890.28;4999176;28;21118;-71
2023/03/08 05:43:27;;;;;;;42.00;11.90;;;;;;;7.35;nan;98882.34;4997039;28;20034;-70
2023/03/08 05:46:04;;;;;;;38.67;11.87;;;;;;;7.39;nan;98878.84;4998165;28;20033;-70
2023/03/08 05:48:32;;;;;;;35.92;11.07;;;;;;;7.44;nan;98884.88;4997843;28;20036;-70
2023/03/08 05:50:57;;;;;;;36.70;11.10;;;;;;;7.45;nan;98889.22;4998195;28;20034;-70
2023/03/08 05:53:23;;;;;;;37.40;11.43;;;;;;;7.47;nan;98887.44;4999012;28;20022;-70
2023/03/08 05:55:48;;;;;;;38.93;11.83;;;;;;;7.48;nan;98893.56;5009925;28;20057;-70
2023/03/08 05:58:14;;;;;;;35.15;11.70;;;;;;;7.46;nan;98901.44;4997019;28;20471;-70
2023/03/08 06:00:40;;;;;;;37.47;11.47;;;;;;;7.45;nan;98893.56;4985322;28;20060;-71
2023/03/08 06:03:05;;;;;;;37.80;10.53;;;;;;;7.42;nan;98886.66;5001502;28;20121;-71
2023/03/08 06:05:31;;;;;;;40.95;11.80;;;;;;;7.40;nan;98885.81;5007442;28;20138;-70
2023/03/08 06:07:57;;;;;;;46.45;12.30;;;;;;;7.38;nan;98874.50;4997646;28;20030;-70
2023/03/08 06:10:23;;;;;;;46.63;12.03;;;;;;;7.36;nan;98868.41;4997764;28;20497;-70
2023/03/08 06:12:48;;;;;;;42.80;12.10;;;;;;;7.35;nan;98869.25;4996049;28;20033;-70
2023/03/08 06:15:14;;;;;;;50.33;13.77;;;;;;;7.32;nan;98867.56;5004160;28;20049;-69
2023/03/08 06:17:40;;;;;;;52.63;13.27;;;;;;;7.32;nan;98864.94;5001397;28;20026;-69
2023/03/08 06:20:07;;;;;;;58.00;14.03;;;;;;;7.33;nan;98852.72;4995105;28;20266;-70
2023/03/08 06:22:32;;;;;;;58.35;14.43;;;;;;;7.32;nan;98851.84;4983489;28;20037;-71
2023/03/08 06:24:57;;;;;;;57.80;14.93;;;;;;;7.36;nan;98844.84;4978192;28;20495;-70
2023/03/08 06:27:23;;;;;;;49.35;14.73;;;;;;;7.38;nan;98840.44;4976865;28;20082;-70
2023/03/08 06:29:49;;;;;;;49.73;13.53;;;;;;;7.40;nan;98849.13;4980147;28;20064;-70
2023/03/08 06:32:15;;;;;;;51.17;14.20;;;;;;;7.39;nan;98839.56;5003199;28;20029;-70
2023/03/08 06:34:41;;;;;;;55.58;14.85;;;;;;;7.40;nan;98843.91;4997540;28;20472;-71
2023/03/08 06:37:06;;;;;;;46.97;13.40;;;;;;;7.42;nan;98841.25;4997393;28;20086;-70
2023/03/08 06:39:33;;;;;;;57.73;14.43;;;;;;;7.45;nan;98846.44;5009179;28;20027;-70
2023/03/08 06:42:01;;;;;;;52.35;14.20;;;;;;;7.50;nan;98849.00;4999296;28;20037;-70
2023/03/08 06:44:27;;;;;;;59.78;14.77;;;;;;;7.59;nan;98852.34;4997486;28;20030;-71
2023/03/08 06:46:52;;;;;;;47.10;14.32;;;;;;;7.65;nan;98848.78;4997288;28;20030;-71
2023/03/08 06:49:18;;;;;;;45.87;13.43;;;;;;;7.67;nan;98841.75;4997250;28;20430;-68
2023/03/08 06:51:43;;;;;;;44.60;13.50;;;;;;;7.70;nan;98851.31;4997333;28;20058;-71
2023/03/08 06:54:08;;;;;;;45.10;15.10;;;;;;;7.72;nan;98855.66;5004498;28;20088;-70
2023/03/08 06:56:34;;;;;;;49.93;16.17;;;;;;;7.75;nan;98860.00;5002192;28;20125;-69
2023/03/08 06:58:59;;;;;;;41.60;14.33;;;;;;;7.81;nan;98856.38;4990390;28;20730;-70
2023/03/08 07:01:35;;;;;;;42.40;13.40;;;;;;;7.85;nan;98855.47;4995302;28;20088;-70
2023/03/08 07:04:01;;;;;;;43.38;14.43;;;;;;;7.95;nan;98851.81;4990628;28;20042;-67
2023/03/08 07:06:26;;;;;;;31.87;11.87;;;;;;;8.04;nan;98854.25;4996041;28;20035;-67
2023/03/08 07:08:52;;;;;;;28.33;10.97;;;;;;;8.14;nan;98857.59;4996868;28;20034;-65
2023/03/08 07:11:17;;;;;;;27.23;10.85;;;;;;;8.28;nan;98859.13;4995895;28;20403;-66
2023/03/08 07:13:42;;;;;;;20.47;9.47;;;;;;;8.38;nan;98854.59;4997474;28;20031;-66
2023/03/08 07:16:16;;;;;;;24.53;9.53;;;;;;;8.49;nan;98863.13;5009190;28;20651;-66
2023/03/08 07:18:41;;;;;;;23.67;10.48;;;;;;;8.67;nan;98861.09;4986708;28;20392;-67
2023/03/08 07:21:09;;;;;;;27.17;9.77;;;;;;;8.79;nan;98850.34;4978480;28;20034;-67
2023/03/08 07:23:34;;;;;;;22.02;9.65;;;;;;;8.94;nan;98856.19;4992160;28;20089;-66
2023/03/08 07:26:06;;;;;;;18.17;8.63;;;;;;;9.04;nan;98860.34;5000655;28;20514;-66
2023/03/08 07:28:31;;;;;;;21.77;9.07;;;;;;;9.13;nan;98875.06;5000070;28;20483;-65
2023/03/08 07:30:57;;;;;;;23.20;8.63;;;;;;;9.26;nan;98873.03;4997304;28;20098;-67
2023/03/08 07:33:22;;;;;;;19.67;9.20;;;;;;;9.42;nan;98877.06;4994095;28;20026;-66
2023/03/08 07:35:48;;;;;;;19.40;8.77;;;;;;;9.64;nan;98871.34;5000153;28;20030;-67
2023/03/08 07:38:14;;;;;;;20.77;8.45;;;;;;;10.04;nan;98870.41;5000501;28;20106;-67
2023/03/08 07:40:40;;;;;;;14.88;6.75;;;;;;;10.88;nan;98870.88;5002032;28;20481;-67
2023/03/08 07:43:06;;;;;;;11.83;6.27;;;;;;;11.46;nan;98864.84;5000317;28;20085;-67
2023/03/08 07:45:32;;;;;;;11.32;5.82;;;;;;;11.71;nan;98858.81;4999100;28;20034;-67
2023/03/08 07:47:58;;;;;;;12.50;6.30;;;;;;;11.63;nan;98860.81;5000218;28;20112;-67
2023/03/08 07:50:23;;;;;;;10.43;5.65;;;;;;;11.43;nan;98848.25;5000380;28;20030;-67
2023/03/08 07:52:49;;;;;;;12.23;6.23;;;;;;;11.14;nan;98836.81;4999999;28;20123;-67
2023/03/08 07:55:14;;;;;;;14.15;6.10;;;;;;;10.95;nan;98847.00;5012533;28;20388;-67
2023/03/08 07:57:40;;;;;;;12.20;6.53;;;;;;;10.78;nan;98853.63;5000184;28;20041;-67
2023/03/08 08:00:06;;;;;;;14.57;6.93;;;;;;;10.69;nan;98841.56;4994484;28;20050;-68
2023/03/08 08:02:33;;;;;;;14.30;6.85;;;;;;;10.67;nan;98838.13;5002387;28;20561;-67
2023/03/08 08:04:59;;;;;;;17.33;7.32;;;;;;;10.94;nan;98832.09;4998961;28;20045;-67
2023/03/08 08:07:24;;;;;;;14.90;7.10;;;;;;;11.89;nan;98830.09;4998775;28;20105;-68
2023/03/08 08:09:50;;;;;;;11.93;6.57;;;;;;;13.12;nan;98832.00;4991454;28;20137;-67
2023/03/08 08:12:15;;;;;;;12.90;6.10;;;;;;;14.15;nan;98835.97;4993153;28;20053;-68
2023/03/08 08:14:41;;;;;;;13.48;6.30;;;;;;;15.87;nan;98827.41;4999545;28;20548;-70
2023/03/08 08:17:06;;;;;;;10.67;5.57;;;;;;;18.67;nan;98822.94;5009383;28;20517;-69
2023/03/08 08:19:32;;;;;;;10.90;5.40;;;;;;;18.22;nan;98821.16;4999184;28;20022;-70
2023/03/08 08:21:57;;;;;;;10.83;5.23;;;;;;;17.60;nan;98825.53;4996959;28;20033;-72
2023/03/08 08:24:23;;;;;;;11.05;4.90;;;;;;;16.86;nan;98818.84;4999723;28;20475;-72
2023/03/08 08:26:49;;;;;;;11.00;3.95;;;;;;;16.24;nan;98820.25;4999674;28;20037;-70
2023/03/08 08:29:14;;;;;;;8.87;4.13;;;;;;;15.51;nan;98821.16;4999095;28;20034;-72
2023/03/08 08:31:40;;;;;;;8.37;4.10;;;;;;;14.88;nan;98820.50;4999098;28;20479;-70
2023/03/08 08:34:05;;;;;;;8.50;4.50;;;;;;;14.21;nan;98830.41;5002275;28;20048;-71
2023/03/08 08:36:30;;;;;;;7.38;4.10;;;;;;;13.89;nan;98830.81;4997884;28;20058;-72
2023/03/08 08:38:56;;;;;;;8.23;4.03;;;;;;;13.72;nan;98823.56;4999459;28;20037;-74
2023/03/08 08:41:22;;;;;;;8.53;4.27;;;;;;;13.77;nan;98837.47;5004255;28;20126;-69
2023/03/08 08:43:48;;;;;;;9.18;4.32;;;;;;;14.06;nan;98832.75;4992395;28;20037;-67
2023/03/08 08:46:14;;;;;;;7.32;3.85;;;;;;;15.53;nan;98831.66;4999031;28;20042;-68
2023/03/08 08:48:40;;;;;;;7.63;3.60;;;;;;;15.96;nan;98834.94;4998867;28;20030;-69
2023/03/08 08:51:08;;;;;;;7.63;3.78;;;;;;;16.02;nan;98831.97;4999298;28;20030;-68
2023/03/08 08:53:34;;;;;;;8.27;4.10;;;;;;;16.06;nan;98825.59;4994846;28;20090;-69
2023/03/08 08:56:10;;;;;;;9.10;3.72;;;;;;;16.10;nan;98817.47;4996952;28;20034;-69
2023/03/08 08:58:35;;;;;;;7.82;3.60;;;;;;;16.45;nan;98820.09;4989865;28;20057;-67
2023/03/08 09:01:01;;;;;;;6.50;3.23;;;;;;;16.86;nan;98840.13;4994994;28;20523;-68
2023/03/08 09:03:26;;;;;;;8.03;3.70;;;;;;;17.28;nan;98840.63;4988234;28;20034;-69
2023/03/08 09:05:51;;;;;;;6.87;3.47;;;;;;;18.01;nan;98837.44;4999350;28;20513;-71
2023/03/08 09:08:17;;;;;;;7.60;3.23;;;;;;;19.38;nan;98829.22;4997716;28;20062;-67
2023/03/08 09:10:42;;;;;;;5.43;2.70;;;;;;;21.23;nan;98828.50;4995222;28;20033;-67
2023/03/08 09:13:07;;;;;;;6.87;2.40;;;;;;;22.39;nan;98847.78;4992095;28;20301;-67
2023/03/08 09:15:35;;;;;;;5.37;2.00;;;;;;;23.30;nan;98833.69;4991141;28;20026;-67
2023/03/08 09:18:00;;;;;;;4.22;1.40;;;;;;;23.39;nan;98846.38;4989205;28;20097;-67
2023/03/08 09:20:26;;;;;;;4.13;1.67;;;;;;;23.70;nan;98845.72;4989146;28;20050;-68
2023/03/08 09:22:51;;;;;;;3.87;1.30;;;;;;;24.16;nan;98843.78;4988952;28;20034;-67
2023/03/08 09:25:19;;;;;;;5.57;1.43;;;;;;;24.66;nan;98862.00;4989350;28;20038;-67
2023/03/08 09:27:45;;;;;;;5.50;1.40;;;;;;;25.25;nan;98850.72;4989135;28;20019;-68
2023/03/08 09:30:13;;;;;;;3.60;1.30;;;;;;;25.31;nan;98855.56;4990393;28;20391;-68
2023/03/08 09:32:38;;;;;;;4.55;1.30;;;;;;;25.62;nan;98869.91;4993893;28;20061;-68
2023/03/08 09:35:04;;;;;;;3.83;1.50;;;;;;;25.87;nan;98858.72;4992454;28;20060;-68
2023/03/08 09:37:30;;;;;;;3.70;1.30;;;;;;;26.23;nan;98859.09;4987828;28;20281;-67
2023/03/08 09:39:55;;;;;;;3.40;1.48;;;;;;;26.85;nan;98877.66;4987261;28;20030;-68
2023/03/08 09:42:32;;;;;;;3.60;1.57;;;;;;;26.61;nan;98899.69;4993565;28;20062;-69
2023/03/08 09:45:07;;;;;;;4.20;1.60;;;;;;;25.69;nan;98847.75;4992211;28;20052;-70
2023/03/08 09:47:51;;;;;;;5.57;1.35;;;;;;;24.87;nan;98853.94;4993929;28;20605;-69
2023/03/08 09:50:44;;;;;;;4.15;1.60;;;;;;;24.71;nan;98842.75;4987944;28;20699;-69
2023/03/08 09:53:13;;;;;;;4.37;1.30;;;;;;;25.01;nan;98844.66;4991747;28;20406;-69
2023/03/08 09:55:46;;;;;;;3.50;1.23;;;;;;;25.35;nan;98849.78;4992444;28;20031;-69
2023/03/08 09:58:31;;;;;;;5.10;1.50;;;;;;;25.55;nan;98846.31;4987907;28;20504;-70
2023/03/08 10:01:21;;;;;;;4.03;1.40;;;;;;;25.68;nan;98846.91;4993670;28;20046;-69
2023/03/08 10:04:00;;;;;;;7.60;1.40;;;;;;;25.29;nan;98841.38;4952380;28;20042;-69
2023/03/08 10:06:30;;;;;;;3.50;1.20;;;;;;;24.90;nan;98833.97;4996277;28;20030;-70
2023/03/08 10:09:43;;;;;;;3.85;1.33;;;;;;;24.45;nan;98837.75;4990457;28;20083;-70
2023/03/08 10:12:28;;;;;;;4.07;1.30;;;;;;;24.33;nan;98824.38;4983952;28;20101;-69
2023/03/08 10:15:02;;;;;;;5.28;1.55;;;;;;;24.49;nan;98806.94;4995746;28;20022;-68
2023/03/08 10:17:54;;;;;;;3.88;1.35;;;;;;;24.74;nan;98792.19;4991498;28;20030;-68
2023/03/08 10:20:29;;;;;;;3.93;1.50;;;;;;;24.90;nan;98794.44;4989536;28;20052;-69
2023/03/08 10:23:12;;;;;;;7.43;1.98;;;;;;;25.27;nan;98800.25;4989253;28;20022;-69
2023/03/08 10:25:38;;;;;;;3.58;1.50;;;;;;;25.94;nan;98814.88;4993245;28;20037;-69
2023/03/08 10:28:13;;;;;;;4.37;1.53;;;;;;;26.27;nan;98806.53;4991475;28;20023;-69
2023/03/08 10:30:46;;;;;;;5.10;1.60;;;;;;;26.55;nan;98812.03;4990817;28;20399;-70
2023/03/08 10:33:14;;;;;;;3.92;1.50;;;;;;;26.48;nan;98816.31;4992700;28;20029;-70
2023/03/08 10:36:01;;;;;;;5.25;1.60;;;;;;;26.23;nan;98819.44;4996006;28;20030;-70
2023/03/08 10:38:29;;;;;;;4.47;1.50;;;;;;;26.02;nan;98816.00;4991119;28;20053;-70
2023/03/08 10:41:11;;;;;;;5.07;1.65;;;;;;;26.00;nan;98821.56;4998796;28;20043;-70
2023/03/08 10:43:56;;;;;;;3.97;1.70;;;;;;;26.88;nan;98804.44;4997576;28;20031;-70
2023/03/08 10:46:29;;;;;;;3.53;1.40;;;;;;;27.98;nan;98806.41;4995529;28;20501;-69
2023/03/08 10:49:09;;;;;;;3.97;1.70;;;;;;;28.38;nan;98798.81;4995233;28;20046;-69
2023/03/08 10:51:34;;;;;;;3.95;1.83;;;;;;;28.53;nan;98796.41;4997266;28;20406;-69
2023/03/08 10:54:03;;;;;;;4.30;1.80;;;;;;;28.43;nan;98790.25;5001383;28;20038;-69
2023/03/08 10:56:54;;;;;;;6.05;1.85;;;;;;;28.07;nan;98797.34;4997174;28;20077;-71
2023/03/08 10:59:31;;;;;;;7.97;1.95;;;;;;;28.44;nan;98797.34;4989491;28;20443;-72
2023/03/08 11:02:13;;;;;;;4.22;1.83;;;;;;;28.77;nan;98794.84;4994803;28;20058;-68
2023/03/08 11:04:50;;;;;;;6.03;1.90;;;;;;;28.99;nan;98793.50;4994517;28;20034;-70
2023/03/08 11:07:30;;;;;;;5.47;2.20;;;;;;;29.44;nan;98794.22;4998765;28;20030;-69
2023/03/08 11:10:11;;;;;;;6.70;2.03;;;;;;;29.47;nan;98801.19;4990923;28;20026;-69
2023/03/08 11:12:36;;;;;;;6.03;2.92;;;;;;;29.29;nan;98806.66;5004088;28;20487;-69
2023/03/08 11:15:12;;;;;;;5.60;2.30;;;;;;;29.20;nan;98798.50;5007034;28;20064;-69
2023/03/08 11:17:43;;;;;;;4.55;2.00;;;;;;;29.47;nan;98802.00;5005858;28;20058;-69
2023/03/08 11:20:17;;;;;;;7.93;2.50;;;;;;;29.70;nan;98806.81;5001083;28;20058;-69
2023/03/08 11:22:51;;;;;;;4.43;1.93;;;;;;;29.79;nan;98794.13;5000634;28;20033;-69
2023/03/08 11:25:41;;;;;;;4.38;1.85;;;;;;;28.87;nan;98801.06;4994555;28;20368;-69
2023/03/08 11:28:40;;;;;;;4.55;2.17;;;;;;;28.18;nan;98801.72;4994669;28;20077;-69
2023/03/08 11:31:13;;;;;;;6.97;2.20;;;;;;;28.32;nan;98810.28;4991016;28;20030;-69
2023/03/08 11:34:19;;;;;;;5.47;2.05;;;;;;;28.12;nan;98817.72;4992666;28;20030;-67
2023/03/08 11:37:18;;;;;;;5.53;1.90;;;;;;;27.88;nan;98820.00;4990097;28;20114;-68
2023/03/08 11:39:51;;;;;;;5.28;1.90;;;;;;;27.58;nan;98813.09;4987634;28;20085;-68
2023/03/08 11:42:43;;;;;;;4.97;2.20;;;;;;;26.70;nan;98816.97;4997438;28;20035;-69
2023/03/08 11:45:33;;;;;;;5.25;2.40;;;;;;;26.75;nan;98820.09;4991775;28;20085;-68
2023/03/08 11:48:04;;;;;;;4.90;2.00;;;;;;;26.84;nan;98811.09;4996551;28;20034;-68
2023/03/08 11:50:50;;;;;;;4.47;2.07;;;;;;;26.69;nan;98812.59;4990610;28;20026;-68